sensor_id;sensor_type;location;lat;lon;timestamp;temperature;humidity
15364;DHT22;7781;49.690;6.472;2023-04-07T00:01:36;7.60;99.90
15364;DHT22;7781;49.690;6.472;2023-04-07T00:04:05;7.60;99.90
15364;DHT22;7781;49.690;6.472;2023-04-07T00:06:34;7.60;99.90
15364;DHT22;7781;49.690;6.472;2023-04-07T00:09:03;7.60;99.90
15364;DHT22;7781;49.690;6.472;2023-04-07T00:11:32;7.60;99.90
15364;DHT22;7781;49.690;6.472;2023-04-07T00:14:02;7.60;99.90
15364;DHT22;7781;49.690;6.472;2023-04-07T00:16:32;7.60;99.90
15364;DHT22;7781;49.690;6.472;2023-04-07T00:19:00;7.60;99.90
15364;DHT22;7781;49.690;6.472;2023-04-07T00:21:29;7.60;99.90
15364;DHT22;7781;49.690;6.472;2023-04-07T00:23:58;7.60;99.90
15364;DHT22;7781;49.690;6.472;2023-04-07T00:26:27;7.60;99.90
15364;DHT22;7781;49.690;6.472;2023-04-07T00:29:01;7.60;99.90
15364;DHT22;7781;49.690;6.472;2023-04-07T00:31:30;7.60;99.90
15364;DHT22;7781;49.690;6.472;2023-04-07T00:34:00;7.60;99.90
15364;DHT22;7781;49.690;6.472;2023-04-07T00:36:29;7.60;99.90
15364;DHT22;7781;49.690;6.472;2023-04-07T00:38:58;7.70;99.90
15364;DHT22;7781;49.690;6.472;2023-04-07T00:44:31;7.70;99.90
15364;DHT22;7781;49.690;6.472;2023-04-07T00:47:01;7.70;99.90
15364;DHT22;7781;49.690;6.472;2023-04-07T00:49:30;7.70;99.90
15364;DHT22;7781;49.690;6.472;2023-04-07T00:51:59;7.60;99.90
15364;DHT22;7781;49.690;6.472;2023-04-07T00:54:29;7.60;99.90
15364;DHT22;7781;49.690;6.472;2023-04-07T00:56:59;7.60;99.90
15364;DHT22;7781;49.690;6.472;2023-04-07T00:59:31;7.50;99.90
15364;DHT22;7781;49.690;6.472;2023-04-07T01:02:04;7.50;99.90
15364;DHT22;7781;49.690;6.472;2023-04-07T01:04:41;7.40;99.90
15364;DHT22;7781;49.690;6.472;2023-04-07T01:07:19;7.40;99.90
15364;DHT22;7781;49.690;6.472;2023-04-07T01:10:03;7.30;99.90
15364;DHT22;7781;49.690;6.472;2023-04-07T01:12:48;7.20;99.90
15364;DHT22;7781;49.690;6.472;2023-04-07T01:15:26;7.30;99.90
15364;DHT22;7781;49.690;6.472;2023-04-07T01:18:05;7.20;99.90
15364;DHT22;7781;49.690;6.472;2023-04-07T01:20:36;7.30;99.90
15364;DHT22;7781;49.690;6.472;2023-04-07T01:23:16;7.30;99.90
15364;DHT22;7781;49.690;6.472;2023-04-07T01:26:06;7.30;99.90
15364;DHT22;7781;49.690;6.472;2023-04-07T01:29:06;7.30;99.90
15364;DHT22;7781;49.690;6.472;2023-04-07T01:31:41;7.30;99.90
15364;DHT22;7781;49.690;6.472;2023-04-07T01:34:11;7.40;99.90
15364;DHT22;7781;49.690;6.472;2023-04-07T01:36:53;7.40;99.90
15364;DHT22;7781;49.690;6.472;2023-04-07T01:39:27;7.40;99.90
15364;DHT22;7781;49.690;6.472;2023-04-07T01:41:56;7.40;99.90
15364;DHT22;7781;49.690;6.472;2023-04-07T01:44:31;7.50;99.90
15364;DHT22;7781;49.690;6.472;2023-04-07T01:47:02;7.50;99.90
15364;DHT22;7781;49.690;6.472;2023-04-07T01:49:31;7.50;99.90
15364;DHT22;7781;49.690;6.472;2023-04-07T01:52:01;7.50;99.90
15364;DHT22;7781;49.690;6.472;2023-04-07T01:54:31;7.50;99.90
15364;DHT22;7781;49.690;6.472;2023-04-07T01:57:00;7.50;99.90
15364;DHT22;7781;49.690;6.472;2023-04-07T01:59:29;7.50;99.90
15364;DHT22;7781;49.690;6.472;2023-04-07T02:02:01;7.50;99.90
15364;DHT22;7781;49.690;6.472;2023-04-07T02:04:34;7.50;99.90
15364;DHT22;7781;49.690;6.472;2023-04-07T02:07:08;7.50;99.90
15364;DHT22;7781;49.690;6.472;2023-04-07T02:09:46;7.50;99.90
15364;DHT22;7781;49.690;6.472;2023-04-07T02:12:17;7.50;99.90
15364;DHT22;7781;49.690;6.472;2023-04-07T02:15:10;7.50;99.90
15364;DHT22;7781;49.690;6.472;2023-04-07T02:17:47;7.50;99.90
15364;DHT22;7781;49.690;6.472;2023-04-07T02:20:20;7.50;99.90
15364;DHT22;7781;49.690;6.472;2023-04-07T02:22:49;7.40;99.90
15364;DHT22;7781;49.690;6.472;2023-04-07T02:25:24;7.40;99.90
15364;DHT22;7781;49.690;6.472;2023-04-07T02:27:55;7.40;99.90
15364;DHT22;7781;49.690;6.472;2023-04-07T02:30:24;7.40;99.90
15364;DHT22;7781;49.690;6.472;2023-04-07T02:32:54;7.40;99.90
15364;DHT22;7781;49.690;6.472;2023-04-07T02:35:24;7.50;99.90
15364;DHT22;7781;49.690;6.472;2023-04-07T02:37:53;7.40;99.90
15364;DHT22;7781;49.690;6.472;2023-04-07T02:40:21;7.40;99.90
15364;DHT22;7781;49.690;6.472;2023-04-07T02:42:52;7.40;99.90
15364;DHT22;7781;49.690;6.472;2023-04-07T02:45:22;7.40;99.90
15364;DHT22;7781;49.690;6.472;2023-04-07T02:47:51;7.40;99.90
15364;DHT22;7781;49.690;6.472;2023-04-07T02:50:22;7.40;99.90
15364;DHT22;7781;49.690;6.472;2023-04-07T02:52:53;7.40;99.90
15364;DHT22;7781;49.690;6.472;2023-04-07T02:55:26;7.40;99.90
15364;DHT22;7781;49.690;6.472;2023-04-07T02:57:55;7.40;99.90
15364;DHT22;7781;49.690;6.472;2023-04-07T03:00:34;7.40;99.90
15364;DHT22;7781;49.690;6.472;2023-04-07T03:03:14;7.40;99.90
15364;DHT22;7781;49.690;6.472;2023-04-07T03:05:56;7.30;99.90
15364;DHT22;7781;49.690;6.472;2023-04-07T03:08:25;7.40;99.90
15364;DHT22;7781;49.690;6.472;2023-04-07T03:10:55;7.30;99.90
15364;DHT22;7781;49.690;6.472;2023-04-07T03:13:29;7.30;99.90
15364;DHT22;7781;49.690;6.472;2023-04-07T03:15:59;7.40;99.90
15364;DHT22;7781;49.690;6.472;2023-04-07T03:18:32;7.30;99.90
15364;DHT22;7781;49.690;6.472;2023-04-07T03:21:05;7.30;99.90
15364;DHT22;7781;49.690;6.472;2023-04-07T03:23:34;7.30;99.90
15364;DHT22;7781;49.690;6.472;2023-04-07T03:26:06;7.30;99.90
15364;DHT22;7781;49.690;6.472;2023-04-07T03:28:36;7.20;99.90
15364;DHT22;7781;49.690;6.472;2023-04-07T03:31:05;7.20;99.90
15364;DHT22;7781;49.690;6.472;2023-04-07T03:33:34;7.20;99.90
15364;DHT22;7781;49.690;6.472;2023-04-07T03:36:06;7.20;99.90
15364;DHT22;7781;49.690;6.472;2023-04-07T03:38:35;7.20;99.90
15364;DHT22;7781;49.690;6.472;2023-04-07T03:41:06;7.20;99.90
15364;DHT22;7781;49.690;6.472;2023-04-07T03:43:35;7.30;99.90
15364;DHT22;7781;49.690;6.472;2023-04-07T03:46:07;7.20;99.90
15364;DHT22;7781;49.690;6.472;2023-04-07T03:48:35;7.20;99.90
15364;DHT22;7781;49.690;6.472;2023-04-07T03:51:12;7.20;99.90
15364;DHT22;7781;49.690;6.472;2023-04-07T03:53:42;7.20;99.90
15364;DHT22;7781;49.690;6.472;2023-04-07T03:56:24;7.30;99.90
15364;DHT22;7781;49.690;6.472;2023-04-07T03:58:56;7.20;99.90
15364;DHT22;7781;49.690;6.472;2023-04-07T04:01:30;7.20;99.90
15364;DHT22;7781;49.690;6.472;2023-04-07T04:04:06;7.30;99.90
15364;DHT22;7781;49.690;6.472;2023-04-07T04:06:37;7.20;99.90
15364;DHT22;7781;49.690;6.472;2023-04-07T04:09:27;7.20;99.90
15364;DHT22;7781;49.690;6.472;2023-04-07T04:11:56;7.20;99.90
15364;DHT22;7781;49.690;6.472;2023-04-07T04:14:25;7.20;99.90
15364;DHT22;7781;49.690;6.472;2023-04-07T04:16:57;7.20;99.90
15364;DHT22;7781;49.690;6.472;2023-04-07T04:19:31;7.20;99.90
15364;DHT22;7781;49.690;6.472;2023-04-07T04:22:06;7.20;99.90
15364;DHT22;7781;49.690;6.472;2023-04-07T04:24:41;7.20;99.90
15364;DHT22;7781;49.690;6.472;2023-04-07T04:27:10;7.20;99.90
15364;DHT22;7781;49.690;6.472;2023-04-07T04:29:40;7.20;99.90
15364;DHT22;7781;49.690;6.472;2023-04-07T04:32:11;7.20;99.90
15364;DHT22;7781;49.690;6.472;2023-04-07T04:34:42;7.20;99.90
15364;DHT22;7781;49.690;6.472;2023-04-07T04:37:13;7.20;99.90
15364;DHT22;7781;49.690;6.472;2023-04-07T04:39:45;7.20;99.90
15364;DHT22;7781;49.690;6.472;2023-04-07T04:42:19;7.20;99.90
15364;DHT22;7781;49.690;6.472;2023-04-07T04:44:48;7.20;99.90
15364;DHT22;7781;49.690;6.472;2023-04-07T04:47:17;7.20;99.90
15364;DHT22;7781;49.690;6.472;2023-04-07T04:49:46;7.20;99.90
15364;DHT22;7781;49.690;6.472;2023-04-07T04:52:18;7.20;99.90
15364;DHT22;7781;49.690;6.472;2023-04-07T04:54:49;7.20;99.90
15364;DHT22;7781;49.690;6.472;2023-04-07T04:57:18;7.20;99.90
15364;DHT22;7781;49.690;6.472;2023-04-07T04:59:47;7.10;99.90
15364;DHT22;7781;49.690;6.472;2023-04-07T05:02:17;7.10;99.90
15364;DHT22;7781;49.690;6.472;2023-04-07T05:04:46;7.10;99.90
15364;DHT22;7781;49.690;6.472;2023-04-07T05:07:29;7.10;99.90
15364;DHT22;7781;49.690;6.472;2023-04-07T05:09:58;7.10;99.90
15364;DHT22;7781;49.690;6.472;2023-04-07T05:12:32;7.10;99.90
15364;DHT22;7781;49.690;6.472;2023-04-07T05:15:22;7.10;99.90
15364;DHT22;7781;49.690;6.472;2023-04-07T05:21:38;7.10;99.90
15364;DHT22;7781;49.690;6.472;2023-04-07T05:24:08;7.00;99.90
15364;DHT22;7781;49.690;6.472;2023-04-07T05:26:37;7.10;99.90
15364;DHT22;7781;49.690;6.472;2023-04-07T05:29:05;7.10;99.90
15364;DHT22;7781;49.690;6.472;2023-04-07T05:31:33;7.00;99.90
15364;DHT22;7781;49.690;6.472;2023-04-07T05:34:07;7.10;99.90
15364;DHT22;7781;49.690;6.472;2023-04-07T05:36:43;7.00;99.90
15364;DHT22;7781;49.690;6.472;2023-04-07T05:39:49;7.00;99.90
15364;DHT22;7781;49.690;6.472;2023-04-07T05:42:18;7.10;99.90
15364;DHT22;7781;49.690;6.472;2023-04-07T05:44:50;7.10;99.90
15364;DHT22;7781;49.690;6.472;2023-04-07T05:50:43;7.00;99.90
15364;DHT22;7781;49.690;6.472;2023-04-07T05:53:16;7.00;99.90
15364;DHT22;7781;49.690;6.472;2023-04-07T05:55:46;7.00;99.90
15364;DHT22;7781;49.690;6.472;2023-04-07T05:58:24;7.00;99.90
15364;DHT22;7781;49.690;6.472;2023-04-07T06:00:57;7.10;99.90
15364;DHT22;7781;49.690;6.472;2023-04-07T06:03:26;7.10;99.90
15364;DHT22;7781;49.690;6.472;2023-04-07T06:06:14;7.10;99.90
15364;DHT22;7781;49.690;6.472;2023-04-07T06:08:47;7.20;99.90
15364;DHT22;7781;49.690;6.472;2023-04-07T06:11:18;7.20;99.90
15364;DHT22;7781;49.690;6.472;2023-04-07T06:13:47;7.30;99.90
15364;DHT22;7781;49.690;6.472;2023-04-07T06:16:16;7.30;99.90
15364;DHT22;7781;49.690;6.472;2023-04-07T06:18:47;7.30;99.90
15364;DHT22;7781;49.690;6.472;2023-04-07T06:21:16;7.30;99.90
15364;DHT22;7781;49.690;6.472;2023-04-07T06:23:44;7.40;99.90
15364;DHT22;7781;49.690;6.472;2023-04-07T06:26:13;7.40;99.90
15364;DHT22;7781;49.690;6.472;2023-04-07T06:28:44;7.40;99.90
15364;DHT22;7781;49.690;6.472;2023-04-07T06:31:15;7.40;99.90
15364;DHT22;7781;49.690;6.472;2023-04-07T06:33:46;7.40;99.90
15364;DHT22;7781;49.690;6.472;2023-04-07T06:36:17;7.40;99.90
15364;DHT22;7781;49.690;6.472;2023-04-07T06:38:52;7.40;99.90
15364;DHT22;7781;49.690;6.472;2023-04-07T06:41:21;7.40;99.90
15364;DHT22;7781;49.690;6.472;2023-04-07T06:43:51;7.40;99.90
15364;DHT22;7781;49.690;6.472;2023-04-07T06:46:20;7.40;99.90
15364;DHT22;7781;49.690;6.472;2023-04-07T06:48:49;7.50;99.90
15364;DHT22;7781;49.690;6.472;2023-04-07T06:51:17;7.40;99.90
15364;DHT22;7781;49.690;6.472;2023-04-07T06:53:48;7.50;99.90
15364;DHT22;7781;49.690;6.472;2023-04-07T06:56:17;7.50;99.90
15364;DHT22;7781;49.690;6.472;2023-04-07T06:58:46;7.50;99.90
15364;DHT22;7781;49.690;6.472;2023-04-07T07:01:16;7.50;99.90
15364;DHT22;7781;49.690;6.472;2023-04-07T07:03:44;7.60;99.90
15364;DHT22;7781;49.690;6.472;2023-04-07T07:06:16;7.60;99.90
15364;DHT22;7781;49.690;6.472;2023-04-07T07:08:45;7.50;99.90
15364;DHT22;7781;49.690;6.472;2023-04-07T07:11:13;7.60;99.90
15364;DHT22;7781;49.690;6.472;2023-04-07T07:13:44;7.70;99.90
15364;DHT22;7781;49.690;6.472;2023-04-07T07:16:15;7.70;99.90
15364;DHT22;7781;49.690;6.472;2023-04-07T07:18:44;7.80;99.90
15364;DHT22;7781;49.690;6.472;2023-04-07T07:21:13;7.80;99.90
15364;DHT22;7781;49.690;6.472;2023-04-07T07:23:42;7.80;99.90
15364;DHT22;7781;49.690;6.472;2023-04-07T07:26:10;7.80;99.90
15364;DHT22;7781;49.690;6.472;2023-04-07T07:28:39;7.90;99.90
15364;DHT22;7781;49.690;6.472;2023-04-07T07:31:10;8.00;99.90
15364;DHT22;7781;49.690;6.472;2023-04-07T07:33:43;8.00;99.90
15364;DHT22;7781;49.690;6.472;2023-04-07T07:36:15;8.00;99.90
15364;DHT22;7781;49.690;6.472;2023-04-07T07:38:44;8.10;99.90
15364;DHT22;7781;49.690;6.472;2023-04-07T07:41:14;8.20;99.90
15364;DHT22;7781;49.690;6.472;2023-04-07T07:43:42;8.20;99.90
15364;DHT22;7781;49.690;6.472;2023-04-07T07:46:11;8.30;99.90
15364;DHT22;7781;49.690;6.472;2023-04-07T07:48:40;8.30;99.90
15364;DHT22;7781;49.690;6.472;2023-04-07T07:51:10;8.40;99.90
15364;DHT22;7781;49.690;6.472;2023-04-07T07:53:39;8.50;99.90
15364;DHT22;7781;49.690;6.472;2023-04-07T07:56:07;8.50;99.90
15364;DHT22;7781;49.690;6.472;2023-04-07T07:58:36;8.50;99.90
15364;DHT22;7781;49.690;6.472;2023-04-07T08:01:05;8.50;99.90
15364;DHT22;7781;49.690;6.472;2023-04-07T08:03:33;8.50;99.90
15364;DHT22;7781;49.690;6.472;2023-04-07T08:06:03;8.60;99.90
15364;DHT22;7781;49.690;6.472;2023-04-07T08:08:33;8.60;99.90
15364;DHT22;7781;49.690;6.472;2023-04-07T08:11:05;8.70;99.90
15364;DHT22;7781;49.690;6.472;2023-04-07T08:13:34;8.80;99.90
15364;DHT22;7781;49.690;6.472;2023-04-07T08:16:03;8.80;99.90
15364;DHT22;7781;49.690;6.472;2023-04-07T08:18:33;8.70;99.90
15364;DHT22;7781;49.690;6.472;2023-04-07T08:21:03;8.80;99.90
15364;DHT22;7781;49.690;6.472;2023-04-07T08:23:33;8.90;99.90
15364;DHT22;7781;49.690;6.472;2023-04-07T08:26:02;9.00;99.90
15364;DHT22;7781;49.690;6.472;2023-04-07T08:28:32;9.00;99.90
15364;DHT22;7781;49.690;6.472;2023-04-07T08:31:00;9.10;99.90
15364;DHT22;7781;49.690;6.472;2023-04-07T08:33:29;9.10;99.90
15364;DHT22;7781;49.690;6.472;2023-04-07T08:36:00;9.10;99.90
15364;DHT22;7781;49.690;6.472;2023-04-07T08:38:30;9.20;99.90
15364;DHT22;7781;49.690;6.472;2023-04-07T08:41:06;9.30;99.90
15364;DHT22;7781;49.690;6.472;2023-04-07T08:43:35;9.40;99.90
15364;DHT22;7781;49.690;6.472;2023-04-07T08:46:07;9.40;99.90
15364;DHT22;7781;49.690;6.472;2023-04-07T08:48:37;9.50;99.90
15364;DHT22;7781;49.690;6.472;2023-04-07T08:51:07;9.70;99.90
15364;DHT22;7781;49.690;6.472;2023-04-07T08:53:40;9.70;99.90
15364;DHT22;7781;49.690;6.472;2023-04-07T08:56:12;9.70;99.90
15364;DHT22;7781;49.690;6.472;2023-04-07T08:58:43;9.80;99.90
15364;DHT22;7781;49.690;6.472;2023-04-07T09:01:13;9.80;99.90
15364;DHT22;7781;49.690;6.472;2023-04-07T09:03:44;10.00;99.90
15364;DHT22;7781;49.690;6.472;2023-04-07T09:06:14;10.00;99.90
15364;DHT22;7781;49.690;6.472;2023-04-07T09:08:43;10.10;99.90
15364;DHT22;7781;49.690;6.472;2023-04-07T09:11:13;10.20;99.90
15364;DHT22;7781;49.690;6.472;2023-04-07T09:13:41;10.40;99.90
15364;DHT22;7781;49.690;6.472;2023-04-07T09:16:10;10.30;99.90
15364;DHT22;7781;49.690;6.472;2023-04-07T09:18:41;10.30;99.90
15364;DHT22;7781;49.690;6.472;2023-04-07T09:21:10;10.30;99.90
15364;DHT22;7781;49.690;6.472;2023-04-07T09:23:42;10.30;99.90
15364;DHT22;7781;49.690;6.472;2023-04-07T09:26:23;10.40;99.90
15364;DHT22;7781;49.690;6.472;2023-04-07T09:28:54;10.50;99.90
15364;DHT22;7781;49.690;6.472;2023-04-07T09:31:42;10.50;99.90
15364;DHT22;7781;49.690;6.472;2023-04-07T09:34:23;10.60;99.90
15364;DHT22;7781;49.690;6.472;2023-04-07T09:36:52;10.90;99.90
15364;DHT22;7781;49.690;6.472;2023-04-07T09:39:23;11.00;99.90
15364;DHT22;7781;49.690;6.472;2023-04-07T09:41:53;11.00;99.90
15364;DHT22;7781;49.690;6.472;2023-04-07T09:44:23;11.10;99.90
15364;DHT22;7781;49.690;6.472;2023-04-07T09:46:55;11.20;99.90
15364;DHT22;7781;49.690;6.472;2023-04-07T09:49:26;11.20;99.90
15364;DHT22;7781;49.690;6.472;2023-04-07T09:51:57;11.30;99.90
15364;DHT22;7781;49.690;6.472;2023-04-07T09:54:33;11.30;99.90
15364;DHT22;7781;49.690;6.472;2023-04-07T09:57:06;11.30;99.90
15364;DHT22;7781;49.690;6.472;2023-04-07T09:59:36;11.30;99.90
15364;DHT22;7781;49.690;6.472;2023-04-07T10:02:06;11.30;99.90
15364;DHT22;7781;49.690;6.472;2023-04-07T10:04:34;11.40;99.90
15364;DHT22;7781;49.690;6.472;2023-04-07T10:07:05;11.40;99.90
15364;DHT22;7781;49.690;6.472;2023-04-07T10:09:34;11.50;89.30
15364;DHT22;7781;49.690;6.472;2023-04-07T10:12:05;11.50;5.80
15364;DHT22;7781;49.690;6.472;2023-04-07T10:14:34;11.40;7.40
15364;DHT22;7781;49.690;6.472;2023-04-07T10:17:06;11.40;29.00
15364;DHT22;7781;49.690;6.472;2023-04-07T10:19:36;11.50;1.00
15364;DHT22;7781;49.690;6.472;2023-04-07T10:22:06;11.50;1.00
15364;DHT22;7781;49.690;6.472;2023-04-07T10:24:45;11.50;16.40
15364;DHT22;7781;49.690;6.472;2023-04-07T10:27:23;11.60;6.40
15364;DHT22;7781;49.690;6.472;2023-04-07T10:29:54;11.60;34.50
15364;DHT22;7781;49.690;6.472;2023-04-07T10:32:24;11.70;1.20
15364;DHT22;7781;49.690;6.472;2023-04-07T10:34:57;11.60;1.00
15364;DHT22;7781;49.690;6.472;2023-04-07T10:37:27;11.70;16.70
15364;DHT22;7781;49.690;6.472;2023-04-07T10:40:26;11.70;1.00
15364;DHT22;7781;49.690;6.472;2023-04-07T10:42:56;11.70;1.00
15364;DHT22;7781;49.690;6.472;2023-04-07T10:45:51;11.70;19.60
15364;DHT22;7781;49.690;6.472;2023-04-07T10:48:20;11.70;1.00
15364;DHT22;7781;49.690;6.472;2023-04-07T10:51:12;11.80;1.00
15364;DHT22;7781;49.690;6.472;2023-04-07T10:57:09;12.00;99.90
15364;DHT22;7781;49.690;6.472;2023-04-07T11:00:15;12.00;97.30
15364;DHT22;7781;49.690;6.472;2023-04-07T11:02:44;12.10;51.70
15364;DHT22;7781;49.690;6.472;2023-04-07T11:05:20;12.00;99.90
15364;DHT22;7781;49.690;6.472;2023-04-07T11:07:51;11.90;1.00
15364;DHT22;7781;49.690;6.472;2023-04-07T11:10:24;11.70;1.00
15364;DHT22;7781;49.690;6.472;2023-04-07T11:13:03;11.70;1.00
15364;DHT22;7781;49.690;6.472;2023-04-07T11:15:38;11.70;99.90
15364;DHT22;7781;49.690;6.472;2023-04-07T11:18:12;11.80;31.90
15364;DHT22;7781;49.690;6.472;2023-04-07T11:20:43;11.90;1.00
15364;DHT22;7781;49.690;6.472;2023-04-07T11:23:13;12.00;1.00
15364;DHT22;7781;49.690;6.472;2023-04-07T11:25:44;12.30;1.00
15364;DHT22;7781;49.690;6.472;2023-04-07T11:28:15;12.50;1.00
15364;DHT22;7781;49.690;6.472;2023-04-07T11:30:48;12.60;50.90
15364;DHT22;7781;49.690;6.472;2023-04-07T11:33:19;12.70;99.90
15364;DHT22;7781;49.690;6.472;2023-04-07T11:35:53;12.60;1.00
15364;DHT22;7781;49.690;6.472;2023-04-07T11:38:24;12.60;1.00
15364;DHT22;7781;49.690;6.472;2023-04-07T11:40:54;12.60;1.00
15364;DHT22;7781;49.690;6.472;2023-04-07T11:43:26;12.80;1.00
15364;DHT22;7781;49.690;6.472;2023-04-07T11:46:12;12.80;8.00
15364;DHT22;7781;49.690;6.472;2023-04-07T11:48:42;13.00;1.00
15364;DHT22;7781;49.690;6.472;2023-04-07T11:51:16;12.90;1.00
15364;DHT22;7781;49.690;6.472;2023-04-07T11:53:46;13.00;1.00
15364;DHT22;7781;49.690;6.472;2023-04-07T11:56:16;12.90;1.00
15364;DHT22;7781;49.690;6.472;2023-04-07T11:58:49;12.80;24.90
15364;DHT22;7781;49.690;6.472;2023-04-07T12:01:19;12.70;29.60
15364;DHT22;7781;49.690;6.472;2023-04-07T12:03:56;12.60;99.90
15364;DHT22;7781;49.690;6.472;2023-04-07T12:06:26;12.60;1.00
15364;DHT22;7781;49.690;6.472;2023-04-07T12:08:59;12.50;1.00
15364;DHT22;7781;49.690;6.472;2023-04-07T12:11:28;12.50;1.00
15364;DHT22;7781;49.690;6.472;2023-04-07T12:13:58;12.60;1.00
15364;DHT22;7781;49.690;6.472;2023-04-07T12:16:28;12.70;1.00
15364;DHT22;7781;49.690;6.472;2023-04-07T12:18:56;12.90;1.00
15364;DHT22;7781;49.690;6.472;2023-04-07T12:21:26;13.10;1.00
15364;DHT22;7781;49.690;6.472;2023-04-07T12:23:56;13.00;1.00
15364;DHT22;7781;49.690;6.472;2023-04-07T12:26:27;12.70;1.00
15364;DHT22;7781;49.690;6.472;2023-04-07T12:28:56;12.60;1.00
15364;DHT22;7781;49.690;6.472;2023-04-07T12:31:35;12.50;1.00
15364;DHT22;7781;49.690;6.472;2023-04-07T12:34:04;12.40;1.00
15364;DHT22;7781;49.690;6.472;2023-04-07T12:36:34;12.20;1.00
15364;DHT22;7781;49.690;6.472;2023-04-07T12:39:04;12.00;1.00
15364;DHT22;7781;49.690;6.472;2023-04-07T12:41:34;12.00;1.00
15364;DHT22;7781;49.690;6.472;2023-04-07T12:44:04;12.00;1.00
15364;DHT22;7781;49.690;6.472;2023-04-07T12:46:34;12.10;1.00
15364;DHT22;7781;49.690;6.472;2023-04-07T12:49:03;12.30;1.00
15364;DHT22;7781;49.690;6.472;2023-04-07T12:51:31;12.60;1.00
15364;DHT22;7781;49.690;6.472;2023-04-07T12:54:00;12.90;1.00
15364;DHT22;7781;49.690;6.472;2023-04-07T12:56:31;13.30;1.00
15364;DHT22;7781;49.690;6.472;2023-04-07T12:58:59;13.70;1.00
15364;DHT22;7781;49.690;6.472;2023-04-07T13:01:28;13.90;1.00
15364;DHT22;7781;49.690;6.472;2023-04-07T13:03:58;14.40;1.00
15364;DHT22;7781;49.690;6.472;2023-04-07T13:06:28;15.10;1.00
15364;DHT22;7781;49.690;6.472;2023-04-07T13:08:56;15.70;1.00
15364;DHT22;7781;49.690;6.472;2023-04-07T13:11:25;15.50;99.90
15364;DHT22;7781;49.690;6.472;2023-04-07T13:13:53;15.00;99.90
15364;DHT22;7781;49.690;6.472;2023-04-07T13:16:25;14.60;99.90
15364;DHT22;7781;49.690;6.472;2023-04-07T13:18:54;14.50;99.90
15364;DHT22;7781;49.690;6.472;2023-04-07T13:21:24;14.30;1.00
15364;DHT22;7781;49.690;6.472;2023-04-07T13:24:12;14.30;99.90
15364;DHT22;7781;49.690;6.472;2023-04-07T13:26:41;14.20;99.90
15364;DHT22;7781;49.690;6.472;2023-04-07T13:29:10;14.10;99.90
15364;DHT22;7781;49.690;6.472;2023-04-07T13:31:38;13.90;99.90
15364;DHT22;7781;49.690;6.472;2023-04-07T13:34:08;14.40;99.90
15364;DHT22;7781;49.690;6.472;2023-04-07T13:36:38;14.60;99.90
15364;DHT22;7781;49.690;6.472;2023-04-07T13:39:07;14.60;99.90
15364;DHT22;7781;49.690;6.472;2023-04-07T13:41:35;14.60;99.90
15364;DHT22;7781;49.690;6.472;2023-04-07T13:44:04;14.50;99.90
15364;DHT22;7781;49.690;6.472;2023-04-07T13:46:33;14.30;99.90
15364;DHT22;7781;49.690;6.472;2023-04-07T13:49:03;14.10;99.90
15364;DHT22;7781;49.690;6.472;2023-04-07T13:51:32;13.70;99.90
15364;DHT22;7781;49.690;6.472;2023-04-07T13:54:03;13.40;99.90
15364;DHT22;7781;49.690;6.472;2023-04-07T13:56:31;12.90;99.90
15364;DHT22;7781;49.690;6.472;2023-04-07T13:59:01;12.80;1.00
15364;DHT22;7781;49.690;6.472;2023-04-07T14:01:30;12.60;1.00
15364;DHT22;7781;49.690;6.472;2023-04-07T14:04:00;12.60;1.00
15364;DHT22;7781;49.690;6.472;2023-04-07T14:06:32;12.60;1.00
15364;DHT22;7781;49.690;6.472;2023-04-07T14:09:04;12.60;1.00
15364;DHT22;7781;49.690;6.472;2023-04-07T14:11:37;12.70;1.00
15364;DHT22;7781;49.690;6.472;2023-04-07T14:14:07;12.80;1.00
15364;DHT22;7781;49.690;6.472;2023-04-07T14:16:38;12.80;1.00
15364;DHT22;7781;49.690;6.472;2023-04-07T14:19:07;12.90;1.00
15364;DHT22;7781;49.690;6.472;2023-04-07T14:21:36;13.00;1.00
15364;DHT22;7781;49.690;6.472;2023-04-07T14:24:07;13.10;1.00
15364;DHT22;7781;49.690;6.472;2023-04-07T14:26:35;13.20;1.00
15364;DHT22;7781;49.690;6.472;2023-04-07T14:29:03;13.60;1.00
15364;DHT22;7781;49.690;6.472;2023-04-07T14:31:32;13.60;1.00
15364;DHT22;7781;49.690;6.472;2023-04-07T14:34:01;13.40;1.00
15364;DHT22;7781;49.690;6.472;2023-04-07T14:36:30;13.30;1.00
15364;DHT22;7781;49.690;6.472;2023-04-07T14:39:00;13.10;1.00
15364;DHT22;7781;49.690;6.472;2023-04-07T14:41:31;13.00;1.00
15364;DHT22;7781;49.690;6.472;2023-04-07T14:43:59;12.90;1.00
15364;DHT22;7781;49.690;6.472;2023-04-07T14:46:29;12.90;1.00
15364;DHT22;7781;49.690;6.472;2023-04-07T14:48:57;12.90;1.00
15364;DHT22;7781;49.690;6.472;2023-04-07T14:51:26;12.90;1.00
15364;DHT22;7781;49.690;6.472;2023-04-07T14:53:54;13.10;1.00
15364;DHT22;7781;49.690;6.472;2023-04-07T14:56:24;13.20;1.00
15364;DHT22;7781;49.690;6.472;2023-04-07T14:58:55;13.60;1.00
15364;DHT22;7781;49.690;6.472;2023-04-07T15:04:27;13.60;1.00
15364;DHT22;7781;49.690;6.472;2023-04-07T15:06:55;13.40;1.00
15364;DHT22;7781;49.690;6.472;2023-04-07T15:09:24;13.20;1.00
15364;DHT22;7781;49.690;6.472;2023-04-07T15:12:01;13.10;1.00
15364;DHT22;7781;49.690;6.472;2023-04-07T15:14:34;13.10;1.00
15364;DHT22;7781;49.690;6.472;2023-04-07T15:17:04;13.20;1.00
15364;DHT22;7781;49.690;6.472;2023-04-07T15:19:35;13.20;1.00
15364;DHT22;7781;49.690;6.472;2023-04-07T15:22:07;13.30;1.00
15364;DHT22;7781;49.690;6.472;2023-04-07T15:24:38;13.80;1.00
15364;DHT22;7781;49.690;6.472;2023-04-07T15:27:07;14.10;1.00
15364;DHT22;7781;49.690;6.472;2023-04-07T15:29:41;14.10;1.00
15364;DHT22;7781;49.690;6.472;2023-04-07T15:32:12;13.90;1.00
15364;DHT22;7781;49.690;6.472;2023-04-07T15:34:46;14.00;1.00
15364;DHT22;7781;49.690;6.472;2023-04-07T15:38:03;13.90;1.00
15364;DHT22;7781;49.690;6.472;2023-04-07T15:41:03;13.70;1.00
15364;DHT22;7781;49.690;6.472;2023-04-07T15:43:41;13.60;1.00
15364;DHT22;7781;49.690;6.472;2023-04-07T15:46:18;13.60;1.00
15364;DHT22;7781;49.690;6.472;2023-04-07T15:48:53;13.60;1.00
15364;DHT22;7781;49.690;6.472;2023-04-07T15:51:30;13.60;1.00
15364;DHT22;7781;49.690;6.472;2023-04-07T15:54:10;13.60;1.00
15364;DHT22;7781;49.690;6.472;2023-04-07T15:56:39;13.70;1.00
15364;DHT22;7781;49.690;6.472;2023-04-07T15:59:12;13.60;1.00
15364;DHT22;7781;49.690;6.472;2023-04-07T16:01:44;13.60;1.00
15364;DHT22;7781;49.690;6.472;2023-04-07T16:04:12;13.50;1.00
15364;DHT22;7781;49.690;6.472;2023-04-07T16:06:43;13.40;1.00
15364;DHT22;7781;49.690;6.472;2023-04-07T16:09:41;13.30;1.00
15364;DHT22;7781;49.690;6.472;2023-04-07T16:12:10;13.20;1.00
15364;DHT22;7781;49.690;6.472;2023-04-07T16:14:39;13.20;1.00
15364;DHT22;7781;49.690;6.472;2023-04-07T16:17:11;13.20;1.00
15364;DHT22;7781;49.690;6.472;2023-04-07T16:19:39;13.30;1.00
15364;DHT22;7781;49.690;6.472;2023-04-07T16:22:08;13.30;1.00
15364;DHT22;7781;49.690;6.472;2023-04-07T16:24:36;13.20;1.00
15364;DHT22;7781;49.690;6.472;2023-04-07T16:27:07;13.10;1.00
15364;DHT22;7781;49.690;6.472;2023-04-07T16:29:36;13.10;1.00
15364;DHT22;7781;49.690;6.472;2023-04-07T16:32:05;13.10;1.00
15364;DHT22;7781;49.690;6.472;2023-04-07T16:34:36;12.90;1.00
15364;DHT22;7781;49.690;6.472;2023-04-07T16:37:04;12.90;1.00
15364;DHT22;7781;49.690;6.472;2023-04-07T16:39:33;12.90;1.00
15364;DHT22;7781;49.690;6.472;2023-04-07T16:42:01;12.80;1.00
15364;DHT22;7781;49.690;6.472;2023-04-07T16:44:30;12.80;1.00
15364;DHT22;7781;49.690;6.472;2023-04-07T16:47:02;12.80;1.00